Mineola, Missouri
Current Conditions -  °F | °C
As of 4:15 AM on Thursday 23 Oct 2014 (Local Time) from KFYG Reporting Station
Haze Haze  
Wind Chill: 38°   Ceiling: Unl
Heat Index: 41°   Visibility: 3mi
Dew Point: 39°   Wind: 5mph
Humidity: 93%   Direction: 130°SE
Pressure: 30.19"   Gusts: NA
Location:  39.0022°N, 91.5066°W
Report Text: KFYG 230915Z AUTO 13004KT 3SM BR CLR 05/04 A3019 RMK AO2
Loading
Personal Weather Stations






























Interactive Weather Map New forecast layout! Learn more

10-Day Weather Forecast

Advertisements
Track Severe Weather on mobile